sensor_id;sensor_type;location;lat;lon;timestamp;temperature;humidity
50544;DHT22;41176;44.032;20.900;2023-02-23T00:01:28;7.50;99.90
50544;DHT22;41176;44.032;20.900;2023-02-23T00:03:58;7.50;99.90
50544;DHT22;41176;44.032;20.900;2023-02-23T00:06:26;7.50;99.90
50544;DHT22;41176;44.032;20.900;2023-02-23T00:08:52;7.50;99.90
50544;DHT22;41176;44.032;20.900;2023-02-23T00:11:18;7.60;99.90
50544;DHT22;41176;44.032;20.900;2023-02-23T00:13:46;7.60;99.90
50544;DHT22;41176;44.032;20.900;2023-02-23T00:16:17;7.60;99.90
50544;DHT22;41176;44.032;20.900;2023-02-23T00:18:45;7.70;99.90
50544;DHT22;41176;44.032;20.900;2023-02-23T00:21:25;7.70;99.90
50544;DHT22;41176;44.032;20.900;2023-02-23T00:23:56;7.70;99.90
50544;DHT22;41176;44.032;20.900;2023-02-23T00:26:23;7.70;99.90
50544;DHT22;41176;44.032;20.900;2023-02-23T00:28:49;7.70;99.90
50544;DHT22;41176;44.032;20.900;2023-02-23T00:31:18;7.60;99.90
50544;DHT22;41176;44.032;20.900;2023-02-23T00:33:50;7.60;99.90
50544;DHT22;41176;44.032;20.900;2023-02-23T00:36:19;7.50;99.90
50544;DHT22;41176;44.032;20.900;2023-02-23T00:38:45;7.50;99.90
50544;DHT22;41176;44.032;20.900;2023-02-23T00:41:13;7.40;99.90
50544;DHT22;41176;44.032;20.900;2023-02-23T00:43:44;7.40;99.90
50544;DHT22;41176;44.032;20.900;2023-02-23T00:46:15;7.20;99.90
50544;DHT22;41176;44.032;20.900;2023-02-23T00:48:45;7.20;99.90
50544;DHT22;41176;44.032;20.900;2023-02-23T00:51:11;7.10;99.90
50544;DHT22;41176;44.032;20.900;2023-02-23T00:53:37;7.10;99.90
50544;DHT22;41176;44.032;20.900;2023-02-23T00:56:04;7.10;99.90
50544;DHT22;41176;44.032;20.900;2023-02-23T00:58:30;7.10;99.90
50544;DHT22;41176;44.032;20.900;2023-02-23T01:00:57;7.20;99.90
50544;DHT22;41176;44.032;20.900;2023-02-23T01:03:28;7.40;99.90
50544;DHT22;41176;44.032;20.900;2023-02-23T01:06:00;7.50;99.90
50544;DHT22;41176;44.032;20.900;2023-02-23T01:08:29;7.50;99.90
50544;DHT22;41176;44.032;20.900;2023-02-23T01:10:56;7.50;99.90
50544;DHT22;41176;44.032;20.900;2023-02-23T01:13:23;7.50;99.90
50544;DHT22;41176;44.032;20.900;2023-02-23T01:15:49;7.30;99.90
50544;DHT22;41176;44.032;20.900;2023-02-23T01:18:17;7.20;99.90
50544;DHT22;41176;44.032;20.900;2023-02-23T01:20:45;7.10;99.90
50544;DHT22;41176;44.032;20.900;2023-02-23T01:23:14;7.10;99.90
50544;DHT22;41176;44.032;20.900;2023-02-23T01:25:42;7.10;99.90
50544;DHT22;41176;44.032;20.900;2023-02-23T01:28:09;7.00;99.90
50544;DHT22;41176;44.032;20.900;2023-02-23T01:30:36;7.00;99.90
50544;DHT22;41176;44.032;20.900;2023-02-23T01:33:02;6.90;99.90
50544;DHT22;41176;44.032;20.900;2023-02-23T01:35:28;6.90;99.90
50544;DHT22;41176;44.032;20.900;2023-02-23T01:37:54;6.80;99.90
50544;DHT22;41176;44.032;20.900;2023-02-23T01:40:22;6.70;99.90
50544;DHT22;41176;44.032;20.900;2023-02-23T01:43:06;6.60;99.90
50544;DHT22;41176;44.032;20.900;2023-02-23T01:45:37;6.50;99.90
50544;DHT22;41176;44.032;20.900;2023-02-23T01:48:14;6.50;99.90
50544;DHT22;41176;44.032;20.900;2023-02-23T01:50:47;6.50;99.90
50544;DHT22;41176;44.032;20.900;2023-02-23T01:53:14;6.50;99.90
50544;DHT22;41176;44.032;20.900;2023-02-23T01:55:41;6.40;99.90
50544;DHT22;41176;44.032;20.900;2023-02-23T01:58:13;6.40;99.90
50544;DHT22;41176;44.032;20.900;2023-02-23T02:00:43;6.40;99.90
50544;DHT22;41176;44.032;20.900;2023-02-23T02:03:14;6.50;99.90
50544;DHT22;41176;44.032;20.900;2023-02-23T02:05:42;6.50;99.90
50544;DHT22;41176;44.032;20.900;2023-02-23T02:08:10;6.60;99.90
50544;DHT22;41176;44.032;20.900;2023-02-23T02:10:37;6.60;99.90
50544;DHT22;41176;44.032;20.900;2023-02-23T02:13:10;6.70;99.90
50544;DHT22;41176;44.032;20.900;2023-02-23T02:21:16;6.60;99.90
50544;DHT22;41176;44.032;20.900;2023-02-23T02:31:59;6.50;99.90
50544;DHT22;41176;44.032;20.900;2023-02-23T02:39:58;6.20;99.90
50544;DHT22;41176;44.032;20.900;2023-02-23T02:46:42;6.10;99.90
50544;DHT22;41176;44.032;20.900;2023-02-23T02:48:53;6.10;99.90
50544;DHT22;41176;44.032;20.900;2023-02-23T02:51:27;6.10;99.90
50544;DHT22;41176;44.032;20.900;2023-02-23T02:56:46;6.10;99.90
50544;DHT22;41176;44.032;20.900;2023-02-23T02:59:16;6.10;99.90
50544;DHT22;41176;44.032;20.900;2023-02-23T03:02:02;6.10;99.90
50544;DHT22;41176;44.032;20.900;2023-02-23T03:04:47;6.10;99.90
50544;DHT22;41176;44.032;20.900;2023-02-23T03:07:49;6.10;99.90
50544;DHT22;41176;44.032;20.900;2023-02-23T03:10:53;6.00;99.90
50544;DHT22;41176;44.032;20.900;2023-02-23T03:19:47;5.90;99.90
50544;DHT22;41176;44.032;20.900;2023-02-23T03:22:52;5.80;99.90
50544;DHT22;41176;44.032;20.900;2023-02-23T03:29:26;5.90;99.90
50544;DHT22;41176;44.032;20.900;2023-02-23T03:32:18;5.90;99.90
50544;DHT22;41176;44.032;20.900;2023-02-23T03:35:13;6.00;99.90
50544;DHT22;41176;44.032;20.900;2023-02-23T03:38:12;6.10;99.90
50544;DHT22;41176;44.032;20.900;2023-02-23T03:40:58;6.00;99.90
50544;DHT22;41176;44.032;20.900;2023-02-23T03:43:51;6.00;99.90
50544;DHT22;41176;44.032;20.900;2023-02-23T03:46:36;5.90;99.90
50544;DHT22;41176;44.032;20.900;2023-02-23T03:49:23;5.90;99.90
50544;DHT22;41176;44.032;20.900;2023-02-23T03:52:17;5.90;99.90
50544;DHT22;41176;44.032;20.900;2023-02-23T03:55:14;5.90;99.90
50544;DHT22;41176;44.032;20.900;2023-02-23T03:58:01;5.90;99.90
50544;DHT22;41176;44.032;20.900;2023-02-23T04:00:48;5.80;99.90
50544;DHT22;41176;44.032;20.900;2023-02-23T04:03:37;5.70;99.90
50544;DHT22;41176;44.032;20.900;2023-02-23T04:06:25;5.80;99.90
50544;DHT22;41176;44.032;20.900;2023-02-23T04:09:10;5.70;99.90
50544;DHT22;41176;44.032;20.900;2023-02-23T04:12:34;5.70;99.90
50544;DHT22;41176;44.032;20.900;2023-02-23T04:17:48;5.40;99.90
50544;DHT22;41176;44.032;20.900;2023-02-23T04:20:14;5.30;99.90
50544;DHT22;41176;44.032;20.900;2023-02-23T04:22:40;5.30;99.90
50544;DHT22;41176;44.032;20.900;2023-02-23T04:25:06;5.30;99.90
50544;DHT22;41176;44.032;20.900;2023-02-23T04:27:34;5.30;99.90
50544;DHT22;41176;44.032;20.900;2023-02-23T04:29:59;5.30;99.90
50544;DHT22;41176;44.032;20.900;2023-02-23T04:32:28;5.40;99.90
50544;DHT22;41176;44.032;20.900;2023-02-23T04:34:54;5.50;99.90
50544;DHT22;41176;44.032;20.900;2023-02-23T04:37:20;5.60;99.90
50544;DHT22;41176;44.032;20.900;2023-02-23T04:39:46;5.60;99.90
50544;DHT22;41176;44.032;20.900;2023-02-23T04:42:15;5.60;99.90
50544;DHT22;41176;44.032;20.900;2023-02-23T04:44:41;5.60;99.90
50544;DHT22;41176;44.032;20.900;2023-02-23T04:47:07;5.60;99.90
50544;DHT22;41176;44.032;20.900;2023-02-23T04:49:33;5.60;99.90
50544;DHT22;41176;44.032;20.900;2023-02-23T04:51:58;5.60;99.90
50544;DHT22;41176;44.032;20.900;2023-02-23T04:54:25;5.60;99.90
50544;DHT22;41176;44.032;20.900;2023-02-23T04:56:50;5.70;99.90
50544;DHT22;41176;44.032;20.900;2023-02-23T04:59:17;5.70;99.90
50544;DHT22;41176;44.032;20.900;2023-02-23T05:01:42;5.60;99.90
50544;DHT22;41176;44.032;20.900;2023-02-23T05:04:08;5.50;99.90
50544;DHT22;41176;44.032;20.900;2023-02-23T05:06:34;5.50;99.90
50544;DHT22;41176;44.032;20.900;2023-02-23T05:09:00;5.50;99.90
50544;DHT22;41176;44.032;20.900;2023-02-23T05:11:28;5.50;99.90
50544;DHT22;41176;44.032;20.900;2023-02-23T05:13:54;5.60;99.90
50544;DHT22;41176;44.032;20.900;2023-02-23T05:16:20;5.60;99.90
50544;DHT22;41176;44.032;20.900;2023-02-23T05:18:45;5.60;99.90
50544;DHT22;41176;44.032;20.900;2023-02-23T05:21:11;5.60;99.90
50544;DHT22;41176;44.032;20.900;2023-02-23T05:23:37;5.60;99.90
50544;DHT22;41176;44.032;20.900;2023-02-23T05:26:05;5.50;99.90
50544;DHT22;41176;44.032;20.900;2023-02-23T05:28:32;5.50;99.90
50544;DHT22;41176;44.032;20.900;2023-02-23T05:30:59;5.50;99.90
50544;DHT22;41176;44.032;20.900;2023-02-23T05:33:25;5.50;99.90
50544;DHT22;41176;44.032;20.900;2023-02-23T05:35:50;5.50;99.90
50544;DHT22;41176;44.032;20.900;2023-02-23T05:38:16;5.40;99.90
50544;DHT22;41176;44.032;20.900;2023-02-23T05:40:42;5.40;99.90
50544;DHT22;41176;44.032;20.900;2023-02-23T05:43:07;5.50;99.90
50544;DHT22;41176;44.032;20.900;2023-02-23T05:45:33;5.50;99.90
50544;DHT22;41176;44.032;20.900;2023-02-23T05:47:59;5.60;99.90
50544;DHT22;41176;44.032;20.900;2023-02-23T05:50:25;5.60;99.90
50544;DHT22;41176;44.032;20.900;2023-02-23T05:52:51;5.70;99.90
50544;DHT22;41176;44.032;20.900;2023-02-23T05:55:17;5.80;99.90
50544;DHT22;41176;44.032;20.900;2023-02-23T05:57:42;5.80;99.90
50544;DHT22;41176;44.032;20.900;2023-02-23T06:00:10;5.90;99.90
50544;DHT22;41176;44.032;20.900;2023-02-23T06:02:38;6.00;99.90
50544;DHT22;41176;44.032;20.900;2023-02-23T06:05:04;6.10;99.90
50544;DHT22;41176;44.032;20.900;2023-02-23T06:07:30;6.10;99.90
50544;DHT22;41176;44.032;20.900;2023-02-23T06:09:56;6.10;99.90
50544;DHT22;41176;44.032;20.900;2023-02-23T06:12:22;6.20;99.90
50544;DHT22;41176;44.032;20.900;2023-02-23T06:14:48;6.30;99.90
50544;DHT22;41176;44.032;20.900;2023-02-23T06:17:16;6.30;99.90
50544;DHT22;41176;44.032;20.900;2023-02-23T06:19:41;6.30;99.90
50544;DHT22;41176;44.032;20.900;2023-02-23T06:22:07;6.30;99.90
50544;DHT22;41176;44.032;20.900;2023-02-23T06:24:33;6.50;99.90
50544;DHT22;41176;44.032;20.900;2023-02-23T06:26:59;6.70;99.90
50544;DHT22;41176;44.032;20.900;2023-02-23T06:29:25;6.80;99.90
50544;DHT22;41176;44.032;20.900;2023-02-23T06:31:51;6.90;99.90
50544;DHT22;41176;44.032;20.900;2023-02-23T06:34:17;6.90;99.90
50544;DHT22;41176;44.032;20.900;2023-02-23T06:36:43;6.80;99.90
50544;DHT22;41176;44.032;20.900;2023-02-23T06:39:10;6.80;99.90
50544;DHT22;41176;44.032;20.900;2023-02-23T06:41:36;6.80;99.90
50544;DHT22;41176;44.032;20.900;2023-02-23T06:44:02;6.90;99.90
50544;DHT22;41176;44.032;20.900;2023-02-23T06:46:28;7.00;99.90
50544;DHT22;41176;44.032;20.900;2023-02-23T06:48:55;7.20;99.90
50544;DHT22;41176;44.032;20.900;2023-02-23T06:51:21;7.40;99.90
50544;DHT22;41176;44.032;20.900;2023-02-23T06:53:47;7.30;99.90
50544;DHT22;41176;44.032;20.900;2023-02-23T06:56:12;7.50;99.90
50544;DHT22;41176;44.032;20.900;2023-02-23T06:58:39;7.60;99.90
50544;DHT22;41176;44.032;20.900;2023-02-23T07:01:05;7.70;99.90
50544;DHT22;41176;44.032;20.900;2023-02-23T07:03:31;8.10;99.90
50544;DHT22;41176;44.032;20.900;2023-02-23T07:05:57;8.10;99.90
50544;DHT22;41176;44.032;20.900;2023-02-23T07:08:22;8.30;99.90
50544;DHT22;41176;44.032;20.900;2023-02-23T07:10:48;8.50;99.90
50544;DHT22;41176;44.032;20.900;2023-02-23T07:13:14;8.60;99.90
50544;DHT22;41176;44.032;20.900;2023-02-23T07:15:41;8.70;99.90
50544;DHT22;41176;44.032;20.900;2023-02-23T07:18:07;8.90;99.90
50544;DHT22;41176;44.032;20.900;2023-02-23T07:20:33;8.90;99.90
50544;DHT22;41176;44.032;20.900;2023-02-23T07:23:00;9.10;99.90
50544;DHT22;41176;44.032;20.900;2023-02-23T07:25:29;9.20;99.90
50544;DHT22;41176;44.032;20.900;2023-02-23T07:27:55;9.40;99.90
50544;DHT22;41176;44.032;20.900;2023-02-23T07:30:21;9.50;99.90
50544;DHT22;41176;44.032;20.900;2023-02-23T07:32:51;9.70;99.90
50544;DHT22;41176;44.032;20.900;2023-02-23T07:35:17;9.60;99.90
50544;DHT22;41176;44.032;20.900;2023-02-23T07:37:43;9.50;99.90
50544;DHT22;41176;44.032;20.900;2023-02-23T07:40:09;9.50;99.90
50544;DHT22;41176;44.032;20.900;2023-02-23T07:42:35;9.60;99.90
50544;DHT22;41176;44.032;20.900;2023-02-23T07:45:01;9.90;99.90
50544;DHT22;41176;44.032;20.900;2023-02-23T07:47:27;10.10;99.90
50544;DHT22;41176;44.032;20.900;2023-02-23T07:49:59;10.50;99.90
50544;DHT22;41176;44.032;20.900;2023-02-23T07:52:28;11.20;99.90
50544;DHT22;41176;44.032;20.900;2023-02-23T07:54:53;11.90;99.90
50544;DHT22;41176;44.032;20.900;2023-02-23T07:57:20;12.50;99.10
50544;DHT22;41176;44.032;20.900;2023-02-23T07:59:46;13.10;94.20
50544;DHT22;41176;44.032;20.900;2023-02-23T08:02:13;13.70;91.40
50544;DHT22;41176;44.032;20.900;2023-02-23T08:04:39;13.90;90.40
50544;DHT22;41176;44.032;20.900;2023-02-23T08:07:05;14.00;89.70
50544;DHT22;41176;44.032;20.900;2023-02-23T08:09:31;13.60;88.90
50544;DHT22;41176;44.032;20.900;2023-02-23T08:12:00;13.30;90.40
50544;DHT22;41176;44.032;20.900;2023-02-23T08:14:25;13.10;91.20
50544;DHT22;41176;44.032;20.900;2023-02-23T08:16:51;13.00;91.50
50544;DHT22;41176;44.032;20.900;2023-02-23T08:19:37;13.30;91.30
50544;DHT22;41176;44.032;20.900;2023-02-23T08:22:19;13.60;90.30
50544;DHT22;41176;44.032;20.900;2023-02-23T08:24:45;13.80;89.80
50544;DHT22;41176;44.032;20.900;2023-02-23T08:27:11;14.10;89.00
50544;DHT22;41176;44.032;20.900;2023-02-23T08:29:37;14.00;87.70
50544;DHT22;41176;44.032;20.900;2023-02-23T08:32:04;14.10;84.10
50544;DHT22;41176;44.032;20.900;2023-02-23T08:34:30;14.00;83.80
50544;DHT22;41176;44.032;20.900;2023-02-23T08:36:55;14.10;83.30
50544;DHT22;41176;44.032;20.900;2023-02-23T08:39:21;14.30;82.00
50544;DHT22;41176;44.032;20.900;2023-02-23T08:41:47;14.60;79.90
50544;DHT22;41176;44.032;20.900;2023-02-23T08:44:13;14.70;79.50
50544;DHT22;41176;44.032;20.900;2023-02-23T08:46:39;15.30;78.10
50544;DHT22;41176;44.032;20.900;2023-02-23T08:49:04;16.00;75.20
50544;DHT22;41176;44.032;20.900;2023-02-23T08:51:31;15.80;74.80
50544;DHT22;41176;44.032;20.900;2023-02-23T08:54:00;15.70;74.10
50544;DHT22;41176;44.032;20.900;2023-02-23T08:56:26;15.80;74.00
50544;DHT22;41176;44.032;20.900;2023-02-23T08:58:51;15.80;75.00
50544;DHT22;41176;44.032;20.900;2023-02-23T09:01:19;16.30;73.30
50544;DHT22;41176;44.032;20.900;2023-02-23T09:03:46;16.50;72.50
50544;DHT22;41176;44.032;20.900;2023-02-23T09:06:15;16.90;70.90
50544;DHT22;41176;44.032;20.900;2023-02-23T09:08:42;16.60;72.30
50544;DHT22;41176;44.032;20.900;2023-02-23T09:11:07;17.10;72.70
50544;DHT22;41176;44.032;20.900;2023-02-23T09:13:33;17.50;69.20
50544;DHT22;41176;44.032;20.900;2023-02-23T09:15:59;18.10;67.90
50544;DHT22;41176;44.032;20.900;2023-02-23T09:18:25;18.50;67.30
50544;DHT22;41176;44.032;20.900;2023-02-23T09:20:54;18.90;66.80
50544;DHT22;41176;44.032;20.900;2023-02-23T09:23:20;19.00;64.00
50544;DHT22;41176;44.032;20.900;2023-02-23T09:25:45;19.10;63.60
50544;DHT22;41176;44.032;20.900;2023-02-23T09:28:15;18.90;65.60
50544;DHT22;41176;44.032;20.900;2023-02-23T09:30:43;19.30;62.40
50544;DHT22;41176;44.032;20.900;2023-02-23T09:33:09;19.10;63.50
50544;DHT22;41176;44.032;20.900;2023-02-23T09:35:35;18.70;63.60
50544;DHT22;41176;44.032;20.900;2023-02-23T09:38:02;18.80;63.20
50544;DHT22;41176;44.032;20.900;2023-02-23T09:43:11;19.80;61.20
50544;DHT22;41176;44.032;20.900;2023-02-23T09:45:46;20.20;62.00
50544;DHT22;41176;44.032;20.900;2023-02-23T09:48:18;20.20;62.10
50544;DHT22;41176;44.032;20.900;2023-02-23T09:50:56;21.20;60.00
50544;DHT22;41176;44.032;20.900;2023-02-23T09:56:37;22.00;57.70
50544;DHT22;41176;44.032;20.900;2023-02-23T09:59:12;22.40;58.10
50544;DHT22;41176;44.032;20.900;2023-02-23T10:04:23;23.00;54.50
50544;DHT22;41176;44.032;20.900;2023-02-23T10:16:05;23.60;53.20
50544;DHT22;41176;44.032;20.900;2023-02-23T10:18:53;23.30;53.50
50544;DHT22;41176;44.032;20.900;2023-02-23T10:26:38;22.40;53.80
50544;DHT22;41176;44.032;20.900;2023-02-23T10:32:28;23.00;52.90
50544;DHT22;41176;44.032;20.900;2023-02-23T10:34:54;22.90;52.90
50544;DHT22;41176;44.032;20.900;2023-02-23T10:37:22;23.20;52.90
50544;DHT22;41176;44.032;20.900;2023-02-23T10:39:49;23.50;52.50
50544;DHT22;41176;44.032;20.900;2023-02-23T10:42:20;24.00;52.40
50544;DHT22;41176;44.032;20.900;2023-02-23T10:44:47;24.00;51.70
50544;DHT22;41176;44.032;20.900;2023-02-23T10:47:16;24.40;50.60
50544;DHT22;41176;44.032;20.900;2023-02-23T10:49:49;24.70;50.40
50544;DHT22;41176;44.032;20.900;2023-02-23T10:52:20;24.70;50.20
50544;DHT22;41176;44.032;20.900;2023-02-23T10:54:49;25.10;48.60
50544;DHT22;41176;44.032;20.900;2023-02-23T10:57:25;24.90;49.90
50544;DHT22;41176;44.032;20.900;2023-02-23T11:02:44;24.70;49.70
50544;DHT22;41176;44.032;20.900;2023-02-23T11:13:44;23.90;50.90
50544;DHT22;41176;44.032;20.900;2023-02-23T11:16:16;24.30;50.40
50544;DHT22;41176;44.032;20.900;2023-02-23T11:18:56;24.20;49.70
50544;DHT22;41176;44.032;20.900;2023-02-23T11:21:25;24.10;49.80
50544;DHT22;41176;44.032;20.900;2023-02-23T11:24:24;24.20;49.40
50544;DHT22;41176;44.032;20.900;2023-02-23T11:26:53;24.50;49.90
50544;DHT22;41176;44.032;20.900;2023-02-23T11:31:56;23.90;51.00
50544;DHT22;41176;44.032;20.900;2023-02-23T11:34:34;24.50;49.30
50544;DHT22;41176;44.032;20.900;2023-02-23T11:37:21;24.60;50.00
50544;DHT22;41176;44.032;20.900;2023-02-23T11:42:23;24.90;48.50
50544;DHT22;41176;44.032;20.900;2023-02-23T11:45:10;24.90;49.00
50544;DHT22;41176;44.032;20.900;2023-02-23T11:47:40;24.50;48.40
50544;DHT22;41176;44.032;20.900;2023-02-23T11:50:21;24.50;49.80
50544;DHT22;41176;44.032;20.900;2023-02-23T11:52:54;24.60;48.60
50544;DHT22;41176;44.032;20.900;2023-02-23T11:55:20;24.40;49.40
50544;DHT22;41176;44.032;20.900;2023-02-23T11:57:46;24.70;48.90
50544;DHT22;41176;44.032;20.900;2023-02-23T12:00:27;25.10;48.20
50544;DHT22;41176;44.032;20.900;2023-02-23T12:02:58;25.20;47.10
50544;DHT22;41176;44.032;20.900;2023-02-23T12:05:27;25.10;46.70
50544;DHT22;41176;44.032;20.900;2023-02-23T12:08:08;24.90;46.90
50544;DHT22;41176;44.032;20.900;2023-02-23T12:10:39;24.90;47.00
50544;DHT22;41176;44.032;20.900;2023-02-23T12:13:35;24.80;46.70
50544;DHT22;41176;44.032;20.900;2023-02-23T12:24:31;24.80;46.50
50544;DHT22;41176;44.032;20.900;2023-02-23T12:27:18;24.60;46.60
50544;DHT22;41176;44.032;20.900;2023-02-23T12:32:44;25.30;45.50
50544;DHT22;41176;44.032;20.900;2023-02-23T12:37:46;25.60;45.50
50544;DHT22;41176;44.032;20.900;2023-02-23T12:40:22;25.60;44.80
50544;DHT22;41176;44.032;20.900;2023-02-23T12:49:12;24.80;46.20
50544;DHT22;41176;44.032;20.900;2023-02-23T12:51:42;25.30;44.60
50544;DHT22;41176;44.032;20.900;2023-02-23T12:54:11;24.80;45.60
50544;DHT22;41176;44.032;20.900;2023-02-23T13:05:25;24.70;44.60
50544;DHT22;41176;44.032;20.900;2023-02-23T13:08:10;24.60;44.60
50544;DHT22;41176;44.032;20.900;2023-02-23T13:13:23;24.60;44.70
50544;DHT22;41176;44.032;20.900;2023-02-23T13:18:59;22.70;46.30
50544;DHT22;41176;44.032;20.900;2023-02-23T13:21:25;22.40;48.40
50544;DHT22;41176;44.032;20.900;2023-02-23T13:24:05;23.10;47.80
50544;DHT22;41176;44.032;20.900;2023-02-23T13:26:49;23.40;47.20
50544;DHT22;41176;44.032;20.900;2023-02-23T13:31:49;24.10;45.80
50544;DHT22;41176;44.032;20.900;2023-02-23T13:34:32;24.20;45.10
50544;DHT22;41176;44.032;20.900;2023-02-23T13:37:01;24.30;45.00
50544;DHT22;41176;44.032;20.900;2023-02-23T13:39:47;24.00;44.30
50544;DHT22;41176;44.032;20.900;2023-02-23T13:45:05;23.30;45.90
50544;DHT22;41176;44.032;20.900;2023-02-23T13:50:54;22.50;46.00
50544;DHT22;41176;44.032;20.900;2023-02-23T13:53:44;22.30;47.00
50544;DHT22;41176;44.032;20.900;2023-02-23T13:56:21;21.90;47.40
50544;DHT22;41176;44.032;20.900;2023-02-23T13:58:54;22.00;47.20
50544;DHT22;41176;44.032;20.900;2023-02-23T14:01:39;21.10;47.60
50544;DHT22;41176;44.032;20.900;2023-02-23T14:04:20;20.80;49.40
50544;DHT22;41176;44.032;20.900;2023-02-23T14:09:27;21.10;48.20
50544;DHT22;41176;44.032;20.900;2023-02-23T14:14:46;20.40;50.20
50544;DHT22;41176;44.032;20.900;2023-02-23T14:22:33;20.60;49.80
50544;DHT22;41176;44.032;20.900;2023-02-23T14:28:00;21.10;49.40
50544;DHT22;41176;44.032;20.900;2023-02-23T14:30:28;21.30;49.40
50544;DHT22;41176;44.032;20.900;2023-02-23T14:33:00;21.40;48.70
50544;DHT22;41176;44.032;20.900;2023-02-23T14:38:08;21.10;49.00
50544;DHT22;41176;44.032;20.900;2023-02-23T14:40:43;20.60;49.60
50544;DHT22;41176;44.032;20.900;2023-02-23T14:43:32;20.10;50.40
50544;DHT22;41176;44.032;20.900;2023-02-23T14:46:10;19.90;51.80
50544;DHT22;41176;44.032;20.900;2023-02-23T14:48:39;19.60;51.20
50544;DHT22;41176;44.032;20.900;2023-02-23T14:51:21;19.60;52.40
50544;DHT22;41176;44.032;20.900;2023-02-23T14:53:49;19.80;51.40
50544;DHT22;41176;44.032;20.900;2023-02-23T14:56:22;19.60;51.50
50544;DHT22;41176;44.032;20.900;2023-02-23T14:58:57;19.40;51.80
50544;DHT22;41176;44.032;20.900;2023-02-23T15:01:38;19.40;52.10
50544;DHT22;41176;44.032;20.900;2023-02-23T15:04:16;19.40;52.10
50544;DHT22;41176;44.032;20.900;2023-02-23T15:06:43;19.20;51.40
50544;DHT22;41176;44.032;20.900;2023-02-23T15:09:35;18.70;52.20
50544;DHT22;41176;44.032;20.900;2023-02-23T15:12:17;18.40;53.00
50544;DHT22;41176;44.032;20.900;2023-02-23T15:14:44;18.10;53.50
50544;DHT22;41176;44.032;20.900;2023-02-23T15:17:17;18.10;53.60
50544;DHT22;41176;44.032;20.900;2023-02-23T15:19:56;18.10;54.00
50544;DHT22;41176;44.032;20.900;2023-02-23T15:24:50;18.10;54.30
50544;DHT22;41176;44.032;20.900;2023-02-23T15:27:21;18.10;54.50
50544;DHT22;41176;44.032;20.900;2023-02-23T15:29:50;18.00;54.30
50544;DHT22;41176;44.032;20.900;2023-02-23T15:32:21;17.80;55.00
50544;DHT22;41176;44.032;20.900;2023-02-23T15:34:47;17.60;55.40
50544;DHT22;41176;44.032;20.900;2023-02-23T15:37:16;17.50;55.70
50544;DHT22;41176;44.032;20.900;2023-02-23T15:40:05;17.40;56.10
50544;DHT22;41176;44.032;20.900;2023-02-23T15:42:45;17.20;56.10
50544;DHT22;41176;44.032;20.900;2023-02-23T15:48:03;16.80;57.10
50544;DHT22;41176;44.032;20.900;2023-02-23T15:50:32;16.80;56.40
50544;DHT22;41176;44.032;20.900;2023-02-23T15:53:06;16.70;56.40
50544;DHT22;41176;44.032;20.900;2023-02-23T15:55:39;16.40;56.90
50544;DHT22;41176;44.032;20.900;2023-02-23T15:58:24;16.20;57.20
50544;DHT22;41176;44.032;20.900;2023-02-23T16:00:54;16.00;57.50
50544;DHT22;41176;44.032;20.900;2023-02-23T16:03:31;15.90;58.20
50544;DHT22;41176;44.032;20.900;2023-02-23T16:08:28;15.70;58.20
50544;DHT22;41176;44.032;20.900;2023-02-23T16:11:02;15.50;58.60
50544;DHT22;41176;44.032;20.900;2023-02-23T16:13:28;15.40;59.00
50544;DHT22;41176;44.032;20.900;2023-02-23T16:15:54;15.30;59.30
50544;DHT22;41176;44.032;20.900;2023-02-23T16:18:40;15.10;59.50
50544;DHT22;41176;44.032;20.900;2023-02-23T16:21:16;15.10;59.90
50544;DHT22;41176;44.032;20.900;2023-02-23T16:23:44;15.00;59.60
50544;DHT22;41176;44.032;20.900;2023-02-23T16:26:38;14.90;60.20
50544;DHT22;41176;44.032;20.900;2023-02-23T16:39:00;14.30;61.40
50544;DHT22;41176;44.032;20.900;2023-02-23T16:41:29;14.00;62.00
50544;DHT22;41176;44.032;20.900;2023-02-23T16:43:59;14.00;62.20
50544;DHT22;41176;44.032;20.900;2023-02-23T16:46:28;13.90;62.40
50544;DHT22;41176;44.032;20.900;2023-02-23T16:48:54;13.80;62.90
50544;DHT22;41176;44.032;20.900;2023-02-23T16:51:34;13.70;63.40
50544;DHT22;41176;44.032;20.900;2023-02-23T16:54:00;13.50;63.50
50544;DHT22;41176;44.032;20.900;2023-02-23T16:56:29;13.40;64.00
50544;DHT22;41176;44.032;20.900;2023-02-23T16:59:00;13.30;64.50
50544;DHT22;41176;44.032;20.900;2023-02-23T17:01:26;13.30;64.70
50544;DHT22;41176;44.032;20.900;2023-02-23T17:03:52;13.20;64.90
50544;DHT22;41176;44.032;20.900;2023-02-23T17:06:19;13.10;65.90
50544;DHT22;41176;44.032;20.900;2023-02-23T17:08:45;13.10;65.20
50544;DHT22;41176;44.032;20.900;2023-02-23T17:11:11;13.10;65.40
50544;DHT22;41176;44.032;20.900;2023-02-23T17:13:37;13.00;65.30
50544;DHT22;41176;44.032;20.900;2023-02-23T17:16:05;12.80;66.00
50544;DHT22;41176;44.032;20.900;2023-02-23T17:18:34;12.70;66.60
50544;DHT22;41176;44.032;20.900;2023-02-23T17:21:02;12.70;66.90
50544;DHT22;41176;44.032;20.900;2023-02-23T17:23:30;12.70;66.90
50544;DHT22;41176;44.032;20.900;2023-02-23T17:26:08;12.60;67.30
50544;DHT22;41176;44.032;20.900;2023-02-23T17:28:33;12.60;67.40
50544;DHT22;41176;44.032;20.900;2023-02-23T17:31:00;12.60;67.40
50544;DHT22;41176;44.032;20.900;2023-02-23T17:33:27;12.50;67.30
50544;DHT22;41176;44.032;20.900;2023-02-23T17:35:53;12.50;67.60
50544;DHT22;41176;44.032;20.900;2023-02-23T17:38:19;12.50;67.80
50544;DHT22;41176;44.032;20.900;2023-02-23T17:40:46;12.30;68.00
50544;DHT22;41176;44.032;20.900;2023-02-23T17:43:11;12.30;68.20
50544;DHT22;41176;44.032;20.900;2023-02-23T17:45:37;12.30;68.20
50544;DHT22;41176;44.032;20.900;2023-02-23T17:48:04;12.20;68.80
50544;DHT22;41176;44.032;20.900;2023-02-23T17:50:29;12.10;69.00
50544;DHT22;41176;44.032;20.900;2023-02-23T17:52:55;12.10;69.20
50544;DHT22;41176;44.032;20.900;2023-02-23T17:55:22;12.00;69.40
50544;DHT22;41176;44.032;20.900;2023-02-23T17:57:48;11.90;69.70
50544;DHT22;41176;44.032;20.900;2023-02-23T18:00:16;11.80;70.20
50544;DHT22;41176;44.032;20.900;2023-02-23T18:02:44;11.70;70.40
50544;DHT22;41176;44.032;20.900;2023-02-23T18:05:13;11.60;71.10
50544;DHT22;41176;44.032;20.900;2023-02-23T18:07:39;11.50;71.90
50544;DHT22;41176;44.032;20.900;2023-02-23T18:10:05;11.40;72.30
50544;DHT22;41176;44.032;20.900;2023-02-23T18:12:31;11.40;72.70
50544;DHT22;41176;44.032;20.900;2023-02-23T18:14:57;11.40;72.70
50544;DHT22;41176;44.032;20.900;2023-02-23T18:17:26;11.40;72.70
50544;DHT22;41176;44.032;20.900;2023-02-23T18:19:54;11.50;72.50
50544;DHT22;41176;44.032;20.900;2023-02-23T18:22:20;11.50;72.70
50544;DHT22;41176;44.032;20.900;2023-02-23T18:24:46;11.40;72.90